createdAt,value
2019-01-16T00:00:50.373Z,983.460
2019-01-16T00:02:50.427Z,983.437
2019-01-16T00:04:49.846Z,983.415
2019-01-16T00:06:50.449Z,983.396
2019-01-16T00:08:50.503Z,983.405
2019-01-16T00:10:50.534Z,983.411
2019-01-16T00:12:50.154Z,983.398
2019-01-16T00:14:50.248Z,983.383
2019-01-16T00:16:50.068Z,983.358
2019-01-16T00:18:50.155Z,983.329
2019-01-16T00:20:50.222Z,983.309
2019-01-16T00:22:50.299Z,983.286
2019-01-16T00:24:49.959Z,983.289
2019-01-16T00:26:50.297Z,983.288
2019-01-16T00:28:50.528Z,983.280
2019-01-16T00:30:50.571Z,983.263
2019-01-16T00:32:50.567Z,983.263
2019-01-16T00:34:50.050Z,983.258
2019-01-16T00:36:50.213Z,983.252
2019-01-16T00:38:50.307Z,983.246
2019-01-16T00:40:49.864Z,983.274
2019-01-16T00:42:49.834Z,983.245
2019-01-16T00:44:49.879Z,983.209
2019-01-16T00:46:50.032Z,983.187
2019-01-16T00:48:50.058Z,983.159
2019-01-16T00:50:50.499Z,983.136
2019-01-16T00:52:49.706Z,983.112
2019-01-16T00:54:49.913Z,983.092
2019-01-16T00:56:50.193Z,983.092
2019-01-16T00:58:50.212Z,983.041
2019-01-16T01:00:50.193Z,983.037
2019-01-16T01:02:50.269Z,983.063
2019-01-16T01:04:49.660Z,983.093
2019-01-16T01:06:49.920Z,983.118
2019-01-16T01:08:49.965Z,983.143
2019-01-16T01:10:49.919Z,983.126
2019-01-16T01:12:49.908Z,983.117
2019-01-16T01:14:49.899Z,983.111
2019-01-16T01:16:50.085Z,983.116
2019-01-16T01:18:50.063Z,983.115
2019-01-16T01:20:50.078Z,983.129
2019-01-16T01:22:49.946Z,983.140
2019-01-16T01:24:49.960Z,983.150
2019-01-16T01:26:49.675Z,983.119
2019-01-16T01:28:49.820Z,983.130
2019-01-16T01:30:49.778Z,983.119
2019-01-16T01:32:50.313Z,983.138
2019-01-16T01:34:49.622Z,983.165
2019-01-16T01:36:49.924Z,983.154
2019-01-16T01:38:49.873Z,983.137
2019-01-16T01:40:49.897Z,983.114
2019-01-16T01:42:49.917Z,983.114
2019-01-16T01:44:50.578Z,983.102
2019-01-16T01:46:50.367Z,983.093
2019-01-16T01:48:50.413Z,983.089
2019-01-16T01:50:50.391Z,983.095
2019-01-16T01:52:49.643Z,983.095
2019-01-16T01:54:49.630Z,983.118
2019-01-16T01:56:49.923Z,983.114
2019-01-16T01:58:49.950Z,983.114
2019-01-16T02:00:49.924Z,983.125
2019-01-16T02:02:49.960Z,983.108
2019-01-16T02:04:50.384Z,983.076
2019-01-16T02:06:49.632Z,983.038
2019-01-16T02:08:49.716Z,982.990
2019-01-16T02:10:49.722Z,982.967
2019-01-16T02:12:49.944Z,982.924
2019-01-16T02:14:50.007Z,982.959
2019-01-16T02:16:50.287Z,982.945
2019-01-16T02:18:50.366Z,982.908
2019-01-16T02:20:49.987Z,982.879
2019-01-16T02:22:50.181Z,982.866
2019-01-16T02:24:49.913Z,982.836
2019-01-16T02:26:50.131Z,982.793
2019-01-16T02:28:50.418Z,982.772
2019-01-16T02:30:50.604Z,982.791
2019-01-16T02:32:49.737Z,982.814
2019-01-16T02:34:50.167Z,982.816
2019-01-16T02:36:50.433Z,982.813
2019-01-16T02:38:50.431Z,982.773
2019-01-16T02:40:50.492Z,982.753
2019-01-16T02:42:50.543Z,982.726
2019-01-16T02:44:50.115Z,982.722
2019-01-16T02:46:50.443Z,982.688
2019-01-16T02:48:56.597Z,982.662
2019-01-16T02:50:49.635Z,982.662
2019-01-16T02:52:49.690Z,982.662
2019-01-16T02:54:49.966Z,982.581
2019-01-16T02:56:50.041Z,982.573
2019-01-16T02:58:50.232Z,982.581
2019-01-16T03:00:50.529Z,982.564
2019-01-16T03:02:50.593Z,982.500
2019-01-16T03:04:50.420Z,982.483
2019-01-16T03:06:49.714Z,982.451
2019-01-16T03:08:50.056Z,982.441
2019-01-16T03:10:50.280Z,982.435
2019-01-16T03:12:50.183Z,982.392
2019-01-16T03:14:49.751Z,982.379
2019-01-16T03:16:49.914Z,982.346
2019-01-16T03:18:49.937Z,982.346
2019-01-16T03:20:49.978Z,982.337
2019-01-16T03:22:49.992Z,982.336
2019-01-16T03:24:50.080Z,982.352
2019-01-16T03:26:50.042Z,982.342
2019-01-16T03:28:49.808Z,982.334
2019-01-16T03:30:49.990Z,982.321
2019-01-16T03:32:50.099Z,982.319
2019-01-16T03:34:50.045Z,982.319
2019-01-16T03:36:50.254Z,982.293
2019-01-16T03:38:50.299Z,982.287
2019-01-16T03:40:50.382Z,982.269
2019-01-16T03:42:50.430Z,982.268
2019-01-16T03:44:50.149Z,982.227
2019-01-16T03:46:50.380Z,982.229
2019-01-16T03:48:50.426Z,982.179
2019-01-16T03:50:50.269Z,982.136
2019-01-16T03:52:50.070Z,982.143
2019-01-16T03:54:50.086Z,982.132
2019-01-16T03:56:50.162Z,982.138
2019-01-16T03:58:49.680Z,982.138
2019-01-16T04:00:49.642Z,982.135
2019-01-16T04:02:50.340Z,982.115
2019-01-16T04:04:50.113Z,982.100
2019-01-16T04:06:50.297Z,982.100
2019-01-16T04:08:50.385Z,982.111
2019-01-16T04:10:50.381Z,982.100
2019-01-16T04:12:50.383Z,982.081
2019-01-16T04:14:50.509Z,982.081
2019-01-16T04:16:49.773Z,982.074
2019-01-16T04:18:49.897Z,982.082
2019-01-16T04:20:49.962Z,982.097
2019-01-16T04:22:49.962Z,982.091
2019-01-16T04:24:50.612Z,982.083
2019-01-16T04:26:50.246Z,982.085
2019-01-16T04:28:50.252Z,982.085
2019-01-16T04:30:50.302Z,982.085
2019-01-16T04:32:50.407Z,982.085
2019-01-16T04:34:49.809Z,982.078
2019-01-16T04:36:50.036Z,982.056
2019-01-16T04:38:50.114Z,982.040
2019-01-16T04:40:50.063Z,982.041
2019-01-16T04:42:49.859Z,982.067
2019-01-16T04:44:50.436Z,982.062
2019-01-16T04:46:50.592Z,982.079
2019-01-16T04:48:49.605Z,982.063
2019-01-16T04:50:50.222Z,982.053
2019-01-16T04:52:50.191Z,982.044
2019-01-16T04:54:50.126Z,982.011
2019-01-16T04:56:50.271Z,981.983
2019-01-16T04:58:50.266Z,981.976
2019-01-16T05:00:49.640Z,981.964
2019-01-16T05:02:49.660Z,981.956
2019-01-16T05:04:50.565Z,981.935
2019-01-16T05:06:50.292Z,981.923
2019-01-16T05:08:49.834Z,981.881
2019-01-16T05:10:50.433Z,981.893
2019-01-16T05:12:50.517Z,981.884
2019-01-16T05:14:49.379Z,981.882
2019-01-16T05:16:50.580Z,981.858
2019-01-16T05:18:49.630Z,981.852
2019-01-16T05:20:49.738Z,981.851
2019-01-16T05:22:49.786Z,981.842
2019-01-16T05:24:49.675Z,981.842
2019-01-16T05:26:50.591Z,981.869
2019-01-16T05:28:49.653Z,981.881
2019-01-16T05:30:50.473Z,981.883
2019-01-16T05:32:49.776Z,981.885
2019-01-16T05:34:50.159Z,981.883
2019-01-16T05:36:50.436Z,981.872
2019-01-16T05:38:50.485Z,981.826
2019-01-16T05:40:50.295Z,981.826
2019-01-16T05:42:49.962Z,981.797
2019-01-16T05:44:50.011Z,981.790
2019-01-16T05:46:50.082Z,981.769
2019-01-16T05:48:50.090Z,981.782
2019-01-16T05:50:49.631Z,981.773
2019-01-16T05:52:49.603Z,981.784
2019-01-16T05:54:50.545Z,981.760
2019-01-16T05:56:49.677Z,981.754
2019-01-16T05:58:49.670Z,981.716
2019-01-16T06:00:50.116Z,981.718
2019-01-16T06:02:50.033Z,981.711
2019-01-16T06:04:50.382Z,981.722
2019-01-16T06:06:49.654Z,981.712
2019-01-16T06:08:49.593Z,981.675
2019-01-16T06:10:50.490Z,981.664
2019-01-16T06:12:50.336Z,981.627
2019-01-16T06:14:50.102Z,981.573
2019-01-16T06:16:50.201Z,981.564
2019-01-16T06:18:50.245Z,981.566
2019-01-16T06:20:50.036Z,981.554
2019-01-16T06:22:50.040Z,981.566
2019-01-16T06:24:50.044Z,981.538
2019-01-16T06:26:50.235Z,981.528
2019-01-16T06:28:50.308Z,981.517
2019-01-16T06:30:50.317Z,981.484
2019-01-16T06:32:50.347Z,981.452
2019-01-16T06:34:50.584Z,981.440
2019-01-16T06:36:49.643Z,981.441
2019-01-16T06:38:49.776Z,981.421
2019-01-16T06:40:50.473Z,981.410
2019-01-16T06:42:50.597Z,981.411
2019-01-16T06:44:49.619Z,981.401
2019-01-16T06:46:49.992Z,981.414
2019-01-16T06:48:50.002Z,981.404
2019-01-16T06:50:50.242Z,981.406
2019-01-16T06:52:50.079Z,981.422
2019-01-16T06:54:50.149Z,981.427
2019-01-16T06:56:50.281Z,981.394
2019-01-16T06:58:50.319Z,981.394
2019-01-16T07:00:50.449Z,981.366
2019-01-16T07:02:50.530Z,981.375
2019-01-16T07:04:49.947Z,981.360
2019-01-16T07:06:50.107Z,981.322
2019-01-16T07:08:50.051Z,981.349
2019-01-16T07:10:49.637Z,981.342
2019-01-16T07:12:49.859Z,981.342
2019-01-16T07:14:50.498Z,981.385
2019-01-16T07:16:49.837Z,981.405
2019-01-16T07:18:50.078Z,981.430
2019-01-16T07:20:50.110Z,981.409
2019-01-16T07:22:49.966Z,981.377
2019-01-16T07:24:49.973Z,981.340
2019-01-16T07:26:50.247Z,981.336
2019-01-16T07:28:50.249Z,981.346
2019-01-16T07:30:50.222Z,981.331
2019-01-16T07:32:50.273Z,981.304
2019-01-16T07:34:49.706Z,981.295
2019-01-16T07:36:49.950Z,981.324
2019-01-16T07:38:49.992Z,981.334
2019-01-16T07:40:50.059Z,981.358
2019-01-16T07:42:50.300Z,981.379
2019-01-16T07:44:50.563Z,981.360
2019-01-16T07:46:50.275Z,981.362
2019-01-16T07:48:49.985Z,981.359
2019-01-16T07:50:50.045Z,981.369
2019-01-16T07:52:50.226Z,981.373
2019-01-16T07:54:50.262Z,981.364
2019-01-16T07:56:50.146Z,981.387
2019-01-16T07:58:50.187Z,981.401
2019-01-16T08:00:50.231Z,981.435
2019-01-16T08:02:50.302Z,981.434
2019-01-16T08:04:50.487Z,981.444
2019-01-16T08:06:50.459Z,981.489
2019-01-16T08:08:50.479Z,981.519
2019-01-16T08:10:49.851Z,981.512
2019-01-16T08:12:50.585Z,981.489
2019-01-16T08:14:50.276Z,981.475
2019-01-16T08:16:50.068Z,981.469
2019-01-16T08:18:50.095Z,981.488
2019-01-16T08:20:50.161Z,981.489
2019-01-16T08:22:50.150Z,981.480
2019-01-16T08:24:49.963Z,981.498
2019-01-16T08:26:50.122Z,981.496
2019-01-16T08:28:50.170Z,981.478
2019-01-16T08:30:50.189Z,981.459
2019-01-16T08:32:49.682Z,981.476
2019-01-16T08:34:50.057Z,981.512
2019-01-16T08:36:49.801Z,981.553
2019-01-16T08:38:50.557Z,981.568
2019-01-16T08:40:50.195Z,981.536
2019-01-16T08:42:50.173Z,981.539
2019-01-16T08:44:49.844Z,981.537
2019-01-16T08:46:49.857Z,981.549
2019-01-16T08:48:49.827Z,981.546
2019-01-16T08:50:49.810Z,981.565
2019-01-16T08:52:49.735Z,981.549
2019-01-16T08:54:49.922Z,981.555
2019-01-16T08:56:50.081Z,981.530
2019-01-16T08:58:50.478Z,981.518
2019-01-16T09:00:50.567Z,981.515
2019-01-16T09:02:50.577Z,981.521
2019-01-16T09:04:50.116Z,981.524
2019-01-16T09:06:50.209Z,981.509
2019-01-16T09:08:50.251Z,981.516
2019-01-16T09:10:50.029Z,981.513
2019-01-16T09:12:49.872Z,981.513
2019-01-16T09:14:49.913Z,981.540
2019-01-16T09:16:49.802Z,981.527
2019-01-16T09:18:49.824Z,981.527
2019-01-16T09:20:49.825Z,981.480
2019-01-16T09:22:49.800Z,981.466
2019-01-16T09:24:50.250Z,981.462
2019-01-16T09:26:50.351Z,981.454
2019-01-16T09:28:50.406Z,981.418
2019-01-16T09:30:50.334Z,981.357
2019-01-16T09:32:50.322Z,981.335
2019-01-16T09:34:50.473Z,981.259
2019-01-16T09:36:49.726Z,981.229
2019-01-16T09:38:50.456Z,981.216
2019-01-16T09:40:50.436Z,981.190
2019-01-16T09:42:50.521Z,981.190
2019-01-16T09:44:50.230Z,981.197
2019-01-16T09:46:50.454Z,981.179
2019-01-16T09:48:50.390Z,981.125
2019-01-16T09:50:50.398Z,981.064
2019-01-16T09:52:50.349Z,981.051
2019-01-16T09:54:50.020Z,981.074
2019-01-16T09:56:50.020Z,981.058
2019-01-16T09:58:50.031Z,981.064
2019-01-16T10:00:50.102Z,981.066
2019-01-16T10:02:50.060Z,981.034
2019-01-16T10:04:50.319Z,981.007
2019-01-16T10:06:50.571Z,980.992
2019-01-16T10:08:49.675Z,980.950
2019-01-16T10:10:49.741Z,980.930
2019-01-16T10:12:49.749Z,980.875
2019-01-16T10:14:49.789Z,980.818
2019-01-16T10:16:50.565Z,980.743
2019-01-16T10:18:49.644Z,980.723
2019-01-16T10:20:56.189Z,980.682
2019-01-16T10:22:50.214Z,980.637
2019-01-16T10:24:50.155Z,980.614
2019-01-16T10:26:50.534Z,980.617
2019-01-16T10:28:50.280Z,980.625
2019-01-16T10:30:50.555Z,980.611
2019-01-16T10:32:49.742Z,980.571
2019-01-16T10:34:49.655Z,980.534
2019-01-16T10:36:50.575Z,980.495
2019-01-16T10:38:50.126Z,980.445
2019-01-16T10:40:49.777Z,980.415
2019-01-16T10:42:50.536Z,980.408
2019-01-16T10:44:49.951Z,980.329
2019-01-16T10:46:50.578Z,980.302
2019-01-16T10:48:50.248Z,980.267
2019-01-16T10:50:50.332Z,980.268
2019-01-16T10:52:50.197Z,980.242
2019-01-16T10:54:49.812Z,980.199
2019-01-16T10:56:50.456Z,980.177
2019-01-16T10:58:50.173Z,980.154
2019-01-16T11:00:50.055Z,980.165
2019-01-16T11:02:50.124Z,980.152
2019-01-16T11:04:49.791Z,980.135
2019-01-16T11:06:50.480Z,980.127
2019-01-16T11:08:49.825Z,980.116
2019-01-16T11:10:50.020Z,980.116
2019-01-16T11:12:49.705Z,980.108
2019-01-16T11:14:49.965Z,980.123
2019-01-16T11:16:57.096Z,980.086
2019-01-16T11:18:50.238Z,980.044
2019-01-16T11:20:50.312Z,979.956
2019-01-16T11:22:49.778Z,979.954
2019-01-16T11:24:50.097Z,979.937
2019-01-16T11:26:49.753Z,979.910
2019-01-16T11:28:49.876Z,979.866
2019-01-16T11:30:50.494Z,979.816
2019-01-16T11:32:49.842Z,979.769
2019-01-16T11:34:50.502Z,979.708
2019-01-16T11:36:50.552Z,979.647
2019-01-16T11:38:49.956Z,979.572
2019-01-16T11:40:51.088Z,979.516
2019-01-16T11:42:50.327Z,979.427
2019-01-16T11:44:50.557Z,979.316
2019-01-16T11:46:50.092Z,979.256
2019-01-16T11:48:49.695Z,979.211
2019-01-16T11:50:49.776Z,979.196
2019-01-16T11:52:50.197Z,979.166
2019-01-16T11:54:50.416Z,979.137
2019-01-16T11:56:49.839Z,979.090
2019-01-16T11:58:49.804Z,979.059
2019-01-16T12:00:50.197Z,979.067
2019-01-16T12:02:49.749Z,979.052
2019-01-16T12:04:49.855Z,979.037
2019-01-16T12:06:50.480Z,979.039
2019-01-16T12:08:49.846Z,979.006
2019-01-16T12:10:50.119Z,978.988
2019-01-16T12:12:50.573Z,978.924
2019-01-16T12:14:50.108Z,978.870
2019-01-16T12:16:50.404Z,978.737
2019-01-16T12:18:49.820Z,978.671
2019-01-16T12:20:49.951Z,978.648
2019-01-16T12:22:49.799Z,978.643
2019-01-16T12:24:49.976Z,978.643
2019-01-16T12:26:50.519Z,978.605
2019-01-16T12:28:50.427Z,978.542
2019-01-16T12:30:50.093Z,978.506
2019-01-16T12:32:50.514Z,978.477
2019-01-16T12:34:50.456Z,978.454
2019-01-16T12:36:49.914Z,978.426
2019-01-16T12:38:50.239Z,978.401
2019-01-16T12:40:50.136Z,978.350
2019-01-16T12:42:49.643Z,978.324
2019-01-16T12:44:49.981Z,978.261
2019-01-16T12:46:50.212Z,978.205
2019-01-16T12:48:49.665Z,978.123
2019-01-16T12:50:49.620Z,978.085
2019-01-16T12:52:54.559Z,978.077
2019-01-16T12:54:49.955Z,978.085
2019-01-16T12:56:49.890Z,978.093
2019-01-16T12:58:50.190Z,978.074
2019-01-16T13:00:49.692Z,978.033
2019-01-16T13:02:50.185Z,978.018
2019-01-16T13:04:49.631Z,977.992
2019-01-16T13:06:50.021Z,977.982
2019-01-16T13:08:50.184Z,977.982
2019-01-16T13:10:49.950Z,978.001
2019-01-16T13:12:50.245Z,978.001
2019-01-16T13:14:49.724Z,977.954
2019-01-16T13:16:50.036Z,977.947
2019-01-16T13:18:50.199Z,977.950
2019-01-16T13:20:50.465Z,977.959
2019-01-16T13:22:50.323Z,977.980
2019-01-16T13:24:50.591Z,978.032
2019-01-16T13:26:50.069Z,978.025
2019-01-16T13:28:50.216Z,977.996
2019-01-16T13:30:50.164Z,977.962
2019-01-16T13:32:50.321Z,977.943
2019-01-16T13:34:49.776Z,977.924
2019-01-16T13:36:50.427Z,977.943
2019-01-16T13:38:50.513Z,977.948
2019-01-16T13:40:49.648Z,977.931
2019-01-16T13:42:50.323Z,977.952
2019-01-16T13:44:50.247Z,977.929
2019-01-16T13:46:49.632Z,977.905
2019-01-16T13:48:53.124Z,977.889
2019-01-16T13:50:50.268Z,977.856
2019-01-16T13:52:50.240Z,977.856
2019-01-16T13:54:50.437Z,977.753
2019-01-16T13:56:49.735Z,977.717
2019-01-16T13:58:49.895Z,977.673
2019-01-16T14:00:50.613Z,977.659
2019-01-16T14:02:49.783Z,977.605
2019-01-16T14:04:50.536Z,977.593
2019-01-16T14:06:50.194Z,977.590
2019-01-16T14:08:50.132Z,977.555
2019-01-16T14:10:50.121Z,977.514
2019-01-16T14:12:50.107Z,977.448
2019-01-16T14:14:50.104Z,977.400
2019-01-16T14:16:50.263Z,977.368
2019-01-16T14:18:50.277Z,977.337
2019-01-16T14:20:50.292Z,977.289
2019-01-16T14:22:50.302Z,977.259
2019-01-16T14:24:49.986Z,977.196
2019-01-16T14:26:49.610Z,977.177
2019-01-16T14:28:49.627Z,977.090
2019-01-16T14:30:49.724Z,977.051
2019-01-16T14:32:49.719Z,977.002
2019-01-16T14:34:50.242Z,976.948
2019-01-16T14:36:50.453Z,976.941
2019-01-16T14:38:50.201Z,976.960
2019-01-16T14:40:50.226Z,976.960
2019-01-16T14:42:50.153Z,976.889
2019-01-16T14:44:50.230Z,976.839
2019-01-16T14:46:50.448Z,976.818
2019-01-16T14:48:50.452Z,976.825
2019-01-16T14:50:50.427Z,976.817
2019-01-16T14:52:50.458Z,976.817
2019-01-16T14:54:50.447Z,976.793
2019-01-16T14:56:49.604Z,976.765
2019-01-16T14:58:49.721Z,976.749
2019-01-16T15:00:49.750Z,976.726
2019-01-16T15:02:49.770Z,976.723
2019-01-16T15:04:50.331Z,976.720
2019-01-16T15:06:50.406Z,976.697
2019-01-16T15:08:50.482Z,976.700
2019-01-16T15:10:50.094Z,976.683
2019-01-16T15:12:50.114Z,976.671
2019-01-16T15:14:50.145Z,976.673
2019-01-16T15:16:50.295Z,976.704
2019-01-16T15:18:50.064Z,976.735
2019-01-16T15:20:50.145Z,976.730
2019-01-16T15:22:50.110Z,976.728
2019-01-16T15:24:50.474Z,976.736
2019-01-16T15:26:49.748Z,976.728
2019-01-16T15:28:49.715Z,976.710
2019-01-16T15:30:49.853Z,976.732
2019-01-16T15:32:49.959Z,976.737
2019-01-16T15:34:50.165Z,976.745
2019-01-16T15:36:50.323Z,976.709
2019-01-16T15:38:50.522Z,976.687
2019-01-16T15:40:50.527Z,976.676
2019-01-16T15:42:50.521Z,976.653
2019-01-16T15:44:50.481Z,976.639
2019-01-16T15:46:50.358Z,976.654
2019-01-16T15:48:50.284Z,976.700
2019-01-16T15:50:50.297Z,976.709
2019-01-16T15:52:50.052Z,976.694
2019-01-16T15:54:50.575Z,976.677
2019-01-16T15:56:50.333Z,976.657
2019-01-16T15:58:49.921Z,976.651
2019-01-16T16:00:50.226Z,976.619
2019-01-16T16:02:50.247Z,976.608
2019-01-16T16:04:49.649Z,976.576
2019-01-16T16:06:49.877Z,976.545
2019-01-16T16:08:49.868Z,976.518
2019-01-16T16:10:49.832Z,976.494
2019-01-16T16:12:49.760Z,976.483
2019-01-16T16:14:49.828Z,976.483
2019-01-16T16:16:49.963Z,976.486
2019-01-16T16:18:49.933Z,976.473
2019-01-16T16:20:49.916Z,976.447
2019-01-16T16:22:49.910Z,976.418
2019-01-16T16:24:49.876Z,976.403
2019-01-16T16:26:49.898Z,976.390
2019-01-16T16:28:49.871Z,976.377
2019-01-16T16:30:49.878Z,976.370
2019-01-16T16:32:51.871Z,976.343
2019-01-16T16:34:49.847Z,976.343
2019-01-16T16:36:50.021Z,976.360
2019-01-16T16:38:49.853Z,976.360
2019-01-16T16:40:49.790Z,976.388
2019-01-16T16:42:49.834Z,976.379
2019-01-16T16:44:49.833Z,976.363
2019-01-16T16:46:49.986Z,976.347
2019-01-16T16:48:49.959Z,976.329
2019-01-16T16:50:50.023Z,976.288
2019-01-16T16:52:50.281Z,976.288
2019-01-16T16:54:50.133Z,976.185
2019-01-16T16:56:50.258Z,976.127
2019-01-16T16:58:54.709Z,976.107
2019-01-16T17:00:49.909Z,976.061
2019-01-16T17:02:49.927Z,976.039
2019-01-16T17:04:50.559Z,976.021
2019-01-16T17:06:49.797Z,976.021
2019-01-16T17:08:50.542Z,975.968
2019-01-16T17:10:49.772Z,975.999
2019-01-16T17:12:49.712Z,976.001
2019-01-16T17:14:49.642Z,975.958
2019-01-16T17:16:50.370Z,975.929
2019-01-16T17:18:50.112Z,975.893
2019-01-16T17:20:50.170Z,975.871
2019-01-16T17:22:50.199Z,975.833
2019-01-16T17:24:50.163Z,975.814
2019-01-16T17:26:50.283Z,975.797
2019-01-16T17:28:50.372Z,975.774
2019-01-16T17:30:50.218Z,975.754
2019-01-16T17:32:50.290Z,975.722
2019-01-16T17:34:50.333Z,975.687
2019-01-16T17:36:49.648Z,975.685
2019-01-16T17:38:49.736Z,975.661
2019-01-16T17:40:49.730Z,975.645
2019-01-16T17:42:50.469Z,975.597
2019-01-16T17:44:50.419Z,975.577
2019-01-16T17:46:49.717Z,975.553
2019-01-16T17:48:49.736Z,975.503
2019-01-16T17:50:49.772Z,975.483
2019-01-16T17:52:49.895Z,975.464
2019-01-16T17:54:49.949Z,975.459
2019-01-16T17:56:50.099Z,975.474
2019-01-16T17:58:50.162Z,975.475
2019-01-16T18:00:50.167Z,975.457
2019-01-16T18:02:49.983Z,975.452
2019-01-16T18:04:50.228Z,975.405
2019-01-16T18:06:50.607Z,975.403
2019-01-16T18:08:50.345Z,975.385
2019-01-16T18:10:50.421Z,975.356
2019-01-16T18:12:50.429Z,975.322
2019-01-16T18:14:49.695Z,975.304
2019-01-16T18:16:50.027Z,975.300
2019-01-16T18:18:49.992Z,975.291
2019-01-16T18:20:49.970Z,975.278
2019-01-16T18:22:49.970Z,975.252
2019-01-16T18:24:49.954Z,975.221
2019-01-16T18:26:50.230Z,975.176
2019-01-16T18:28:50.254Z,975.158
2019-01-16T18:30:50.243Z,975.176
2019-01-16T18:32:50.251Z,975.158
2019-01-16T18:34:50.553Z,975.132
2019-01-16T18:36:49.696Z,975.102
2019-01-16T18:38:49.814Z,975.097
2019-01-16T18:40:49.630Z,975.082
2019-01-16T18:42:49.659Z,975.054
2019-01-16T18:44:49.655Z,975.057
2019-01-16T18:46:49.920Z,975.021
2019-01-16T18:48:49.996Z,975.036
2019-01-16T18:50:49.983Z,975.058
2019-01-16T18:52:52.109Z,975.055
2019-01-16T18:54:49.797Z,974.984
2019-01-16T18:56:50.064Z,974.954
2019-01-16T18:58:50.074Z,974.948
2019-01-16T19:00:50.066Z,974.920
2019-01-16T19:02:50.158Z,974.920
2019-01-16T19:04:50.367Z,974.825
2019-01-16T19:06:50.266Z,974.808
2019-01-16T19:08:50.257Z,974.772
2019-01-16T19:10:50.249Z,974.756
2019-01-16T19:12:50.067Z,974.728
2019-01-16T19:14:50.591Z,974.718
2019-01-16T19:16:49.812Z,974.697
2019-01-16T19:18:49.744Z,974.674
2019-01-16T19:20:49.766Z,974.650
2019-01-16T19:22:49.835Z,974.634
2019-01-16T19:24:49.863Z,974.614
2019-01-16T19:26:50.536Z,974.598
2019-01-16T19:28:50.252Z,974.585
2019-01-16T19:30:50.067Z,974.581
2019-01-16T19:32:49.612Z,974.562
2019-01-16T19:34:50.060Z,974.563
2019-01-16T19:36:50.444Z,974.563
2019-01-16T19:38:50.270Z,974.564
2019-01-16T19:40:50.235Z,974.552
2019-01-16T19:42:50.086Z,974.548
2019-01-16T19:44:50.087Z,974.549
2019-01-16T19:46:50.021Z,974.553
2019-01-16T19:48:50.034Z,974.559
2019-01-16T19:50:49.781Z,974.549
2019-01-16T19:52:49.936Z,974.579
2019-01-16T19:54:49.957Z,974.571
2019-01-16T19:56:50.169Z,974.607
2019-01-16T19:58:50.170Z,974.614
2019-01-16T20:00:50.193Z,974.637
2019-01-16T20:02:50.329Z,974.664
2019-01-16T20:04:49.636Z,974.666
2019-01-16T20:06:50.384Z,974.665
2019-01-16T20:08:50.375Z,974.623
2019-01-16T20:10:50.450Z,974.598
2019-01-16T20:12:50.062Z,974.588
2019-01-16T20:14:50.072Z,974.568
2019-01-16T20:16:50.256Z,974.555
2019-01-16T20:18:49.977Z,974.512
2019-01-16T20:20:49.974Z,974.486
2019-01-16T20:22:49.966Z,974.466
2019-01-16T20:24:49.923Z,974.454
2019-01-16T20:26:50.008Z,974.448
2019-01-16T20:28:50.044Z,974.463
2019-01-16T20:30:50.076Z,974.484
2019-01-16T20:32:50.103Z,974.475
2019-01-16T20:34:49.956Z,974.477
2019-01-16T20:36:49.915Z,974.459
2019-01-16T20:38:49.761Z,974.465
2019-01-16T20:40:49.783Z,974.457
2019-01-16T20:42:49.928Z,974.459
2019-01-16T20:44:49.784Z,974.476
2019-01-16T20:46:50.176Z,974.457
2019-01-16T20:48:50.508Z,974.449
2019-01-16T20:50:49.919Z,974.434
2019-01-16T20:52:49.907Z,974.406
2019-01-16T20:54:49.910Z,974.379
2019-01-16T20:56:49.674Z,974.368
2019-01-16T20:58:49.633Z,974.381
2019-01-16T21:00:49.746Z,974.367
2019-01-16T21:02:49.743Z,974.363
2019-01-16T21:04:50.208Z,974.340
2019-01-16T21:06:50.208Z,974.348
2019-01-16T21:08:50.229Z,974.334
2019-01-16T21:10:50.163Z,974.330
2019-01-16T21:12:49.788Z,974.322
2019-01-16T21:14:49.863Z,974.326
2019-01-16T21:16:50.588Z,974.364
2019-01-16T21:18:49.591Z,974.361
2019-01-16T21:20:50.434Z,974.360
2019-01-16T21:22:50.038Z,974.355
2019-01-16T21:24:49.855Z,974.349
2019-01-16T21:26:49.888Z,974.332
2019-01-16T21:28:49.775Z,974.333
2019-01-16T21:30:49.611Z,974.312
2019-01-16T21:32:50.432Z,974.317
2019-01-16T21:34:49.659Z,974.303
2019-01-16T21:36:49.763Z,974.286
2019-01-16T21:38:49.771Z,974.271
2019-01-16T21:40:50.595Z,974.265
2019-01-16T21:42:50.592Z,974.235
2019-01-16T21:44:50.436Z,974.223
2019-01-16T21:46:50.421Z,974.216
2019-01-16T21:48:50.334Z,974.203
2019-01-16T21:50:50.195Z,974.165
2019-01-16T21:52:50.060Z,974.126
2019-01-16T21:54:49.905Z,974.114
2019-01-16T21:56:50.447Z,974.085
2019-01-16T21:58:49.839Z,974.073
2019-01-16T22:00:49.726Z,974.065
2019-01-16T22:02:50.564Z,974.022
2019-01-16T22:04:49.871Z,974.006
2019-01-16T22:06:50.082Z,973.990
2019-01-16T22:08:49.946Z,973.981
2019-01-16T22:10:49.864Z,973.968
2019-01-16T22:12:49.754Z,973.945
2019-01-16T22:14:49.744Z,973.910
2019-01-16T22:16:49.820Z,973.909
2019-01-16T22:18:49.772Z,973.946
2019-01-16T22:20:49.637Z,973.959
2019-01-16T22:22:50.487Z,973.956
2019-01-16T22:24:50.397Z,973.956
2019-01-16T22:26:50.396Z,973.965
2019-01-16T22:28:50.233Z,973.983
2019-01-16T22:30:50.048Z,973.994
2019-01-16T22:32:49.981Z,973.975
2019-01-16T22:34:50.354Z,973.978
2019-01-16T22:36:50.331Z,973.980
2019-01-16T22:38:51.338Z,973.980
2019-01-16T22:40:50.139Z,973.979
2019-01-16T22:42:49.906Z,973.930
2019-01-16T22:44:49.804Z,973.931
2019-01-16T22:46:49.938Z,973.914
2019-01-16T22:48:49.737Z,973.886
2019-01-16T22:50:50.583Z,973.862
2019-01-16T22:52:50.405Z,973.851
2019-01-16T22:54:50.239Z,973.807
2019-01-16T22:56:50.292Z,973.799
2019-01-16T22:58:50.179Z,973.791
2019-01-16T23:00:50.042Z,973.794
2019-01-16T23:02:49.855Z,973.761
2019-01-16T23:04:50.011Z,973.744
2019-01-16T23:06:50.048Z,973.735
2019-01-16T23:08:49.892Z,973.728
2019-01-16T23:10:49.743Z,973.722
2019-01-16T23:12:49.741Z,973.714
2019-01-16T23:14:50.681Z,973.694
2019-01-16T23:16:49.774Z,973.674
2019-01-16T23:18:49.608Z,973.635
2019-01-16T23:20:50.504Z,973.635
2019-01-16T23:22:50.296Z,973.588
2019-01-16T23:24:50.099Z,973.561
2019-01-16T23:26:50.237Z,973.560
2019-01-16T23:28:50.155Z,973.561
2019-01-16T23:30:49.970Z,973.549
2019-01-16T23:32:49.942Z,973.555
2019-01-16T23:34:50.261Z,973.578
2019-01-16T23:36:50.258Z,973.528
2019-01-16T23:38:50.202Z,973.487
2019-01-16T23:40:50.128Z,973.467
2019-01-16T23:42:49.955Z,973.466
2019-01-16T23:44:49.787Z,973.460
2019-01-16T23:46:49.895Z,973.466
2019-01-16T23:48:49.707Z,973.480
2019-01-16T23:50:50.577Z,973.470
2019-01-16T23:52:50.452Z,973.440
2019-01-16T23:54:50.408Z,973.416
2019-01-16T23:56:50.433Z,973.385
2019-01-16T23:58:50.250Z,973.336
